sensor_id;sensor_type;location;lat;lon;timestamp;P1;durP1;ratioP1;P2;durP2;ratioP2
18280;SDS011;9266;51.132;17.062;2023-04-15T00:02:14;25.27;;;20.50;;
18280;SDS011;9266;51.132;17.062;2023-04-15T00:04:42;24.60;;;21.23;;
18280;SDS011;9266;51.132;17.062;2023-04-15T00:07:10;23.70;;;20.20;;
18280;SDS011;9266;51.132;17.062;2023-04-15T00:09:37;21.87;;;19.57;;
18280;SDS011;9266;51.132;17.062;2023-04-15T00:12:04;20.53;;;18.33;;
18280;SDS011;9266;51.132;17.062;2023-04-15T00:14:32;20.50;;;18.30;;
18280;SDS011;9266;51.132;17.062;2023-04-15T00:17:02;22.10;;;18.57;;
18280;SDS011;9266;51.132;17.062;2023-04-15T00:19:30;19.33;;;17.23;;
18280;SDS011;9266;51.132;17.062;2023-04-15T00:21:57;21.17;;;18.03;;
18280;SDS011;9266;51.132;17.062;2023-04-15T00:24:25;19.83;;;17.73;;
18280;SDS011;9266;51.132;17.062;2023-04-15T00:26:52;19.90;;;17.70;;
18280;SDS011;9266;51.132;17.062;2023-04-15T00:29:19;21.73;;;17.17;;
18280;SDS011;9266;51.132;17.062;2023-04-15T00:31:46;19.80;;;17.70;;
18280;SDS011;9266;51.132;17.062;2023-04-15T00:34:14;19.40;;;17.40;;
18280;SDS011;9266;51.132;17.062;2023-04-15T00:36:41;19.70;;;17.60;;
18280;SDS011;9266;51.132;17.062;2023-04-15T00:39:08;19.57;;;17.47;;
18280;SDS011;9266;51.132;17.062;2023-04-15T00:41:35;20.13;;;18.03;;
18280;SDS011;9266;51.132;17.062;2023-04-15T00:44:04;19.17;;;17.17;;
18280;SDS011;9266;51.132;17.062;2023-04-15T00:46:32;19.13;;;17.13;;
18280;SDS011;9266;51.132;17.062;2023-04-15T00:49:01;19.93;;;17.77;;
18280;SDS011;9266;51.132;17.062;2023-04-15T00:51:31;20.53;;;17.40;;
18280;SDS011;9266;51.132;17.062;2023-04-15T00:54:01;18.17;;;16.37;;
18280;SDS011;9266;51.132;17.062;2023-04-15T00:56:28;19.90;;;16.70;;
18280;SDS011;9266;51.132;17.062;2023-04-15T00:58:56;18.60;;;15.93;;
18280;SDS011;9266;51.132;17.062;2023-04-15T01:01:24;19.03;;;16.97;;
18280;SDS011;9266;51.132;17.062;2023-04-15T01:03:54;18.03;;;16.13;;
18280;SDS011;9266;51.132;17.062;2023-04-15T01:06:22;19.60;;;15.80;;
18280;SDS011;9266;51.132;17.062;2023-04-15T01:08:50;16.60;;;14.90;;
18280;SDS011;9266;51.132;17.062;2023-04-15T01:11:18;17.60;;;15.30;;
18280;SDS011;9266;51.132;17.062;2023-04-15T01:13:46;18.10;;;14.97;;
18280;SDS011;9266;51.132;17.062;2023-04-15T01:16:13;17.17;;;15.37;;
18280;SDS011;9266;51.132;17.062;2023-04-15T01:18:41;19.00;;;15.33;;
18280;SDS011;9266;51.132;17.062;2023-04-15T01:21:09;18.07;;;15.00;;
18280;SDS011;9266;51.132;17.062;2023-04-15T01:23:36;19.33;;;14.60;;
18280;SDS011;9266;51.132;17.062;2023-04-15T01:26:06;17.30;;;15.17;;
18280;SDS011;9266;51.132;17.062;2023-04-15T01:28:34;16.40;;;14.70;;
18280;SDS011;9266;51.132;17.062;2023-04-15T01:31:05;18.47;;;15.50;;
18280;SDS011;9266;51.132;17.062;2023-04-15T01:33:33;16.03;;;14.43;;
18280;SDS011;9266;51.132;17.062;2023-04-15T01:36:00;17.03;;;14.87;;
18280;SDS011;9266;51.132;17.062;2023-04-15T01:38:28;16.47;;;14.77;;
18280;SDS011;9266;51.132;17.062;2023-04-15T01:40:56;15.90;;;14.27;;
18280;SDS011;9266;51.132;17.062;2023-04-15T01:43:24;16.20;;;14.57;;
18280;SDS011;9266;51.132;17.062;2023-04-15T01:45:52;16.87;;;14.00;;
18280;SDS011;9266;51.132;17.062;2023-04-15T01:48:19;18.70;;;14.70;;
18280;SDS011;9266;51.132;17.062;2023-04-15T01:50:47;16.20;;;13.93;;
18280;SDS011;9266;51.132;17.062;2023-04-15T01:53:14;16.70;;;14.87;;
18280;SDS011;9266;51.132;17.062;2023-04-15T01:55:41;16.80;;;14.40;;
18280;SDS011;9266;51.132;17.062;2023-04-15T01:58:08;15.10;;;13.57;;
18280;SDS011;9266;51.132;17.062;2023-04-15T02:00:36;17.70;;;14.23;;
18280;SDS011;9266;51.132;17.062;2023-04-15T02:03:03;17.53;;;14.67;;
18280;SDS011;9266;51.132;17.062;2023-04-15T02:05:30;16.07;;;14.20;;
18280;SDS011;9266;51.132;17.062;2023-04-15T02:07:58;16.03;;;13.67;;
18280;SDS011;9266;51.132;17.062;2023-04-15T02:10:25;18.60;;;14.77;;
18280;SDS011;9266;51.132;17.062;2023-04-15T02:12:52;16.83;;;14.37;;
18280;SDS011;9266;51.132;17.062;2023-04-15T02:15:19;15.70;;;13.97;;
18280;SDS011;9266;51.132;17.062;2023-04-15T02:17:48;17.30;;;15.37;;
18280;SDS011;9266;51.132;17.062;2023-04-15T02:20:17;15.80;;;14.13;;
18280;SDS011;9266;51.132;17.062;2023-04-15T02:22:45;17.00;;;15.20;;
18280;SDS011;9266;51.132;17.062;2023-04-15T02:25:12;17.83;;;15.40;;
18280;SDS011;9266;51.132;17.062;2023-04-15T02:27:40;16.97;;;15.17;;
18280;SDS011;9266;51.132;17.062;2023-04-15T02:30:08;16.00;;;14.30;;
18280;SDS011;9266;51.132;17.062;2023-04-15T02:32:36;16.90;;;15.10;;
18280;SDS011;9266;51.132;17.062;2023-04-15T02:35:05;18.27;;;16.37;;
18280;SDS011;9266;51.132;17.062;2023-04-15T02:37:34;17.97;;;15.87;;
18280;SDS011;9266;51.132;17.062;2023-04-15T02:40:06;17.83;;;16.03;;
18280;SDS011;9266;51.132;17.062;2023-04-15T02:42:36;21.00;;;16.80;;
18280;SDS011;9266;51.132;17.062;2023-04-15T02:45:03;19.07;;;17.00;;
18280;SDS011;9266;51.132;17.062;2023-04-15T02:47:32;20.20;;;17.53;;
18280;SDS011;9266;51.132;17.062;2023-04-15T02:49:59;22.17;;;17.47;;
18280;SDS011;9266;51.132;17.062;2023-04-15T02:52:27;19.70;;;17.70;;
18280;SDS011;9266;51.132;17.062;2023-04-15T02:54:54;19.23;;;17.13;;
18280;SDS011;9266;51.132;17.062;2023-04-15T02:57:24;20.20;;;17.53;;
18280;SDS011;9266;51.132;17.062;2023-04-15T02:59:52;20.17;;;17.00;;
18280;SDS011;9266;51.132;17.062;2023-04-15T03:05:43;20.80;;;17.80;;
18280;SDS011;9266;51.132;17.062;2023-04-15T03:08:12;19.23;;;17.17;;
18280;SDS011;9266;51.132;17.062;2023-04-15T03:10:39;20.30;;;17.40;;
18280;SDS011;9266;51.132;17.062;2023-04-15T03:13:07;18.70;;;16.60;;
18280;SDS011;9266;51.132;17.062;2023-04-15T03:15:35;21.03;;;18.57;;
18280;SDS011;9266;51.132;17.062;2023-04-15T03:18:02;20.40;;;18.20;;
18280;SDS011;9266;51.132;17.062;2023-04-15T03:20:29;22.90;;;17.70;;
18280;SDS011;9266;51.132;17.062;2023-04-15T03:22:56;19.33;;;17.20;;
18280;SDS011;9266;51.132;17.062;2023-04-15T03:25:25;21.40;;;17.67;;
18280;SDS011;9266;51.132;17.062;2023-04-15T03:27:52;21.50;;;19.13;;
18280;SDS011;9266;51.132;17.062;2023-04-15T03:30:19;22.67;;;18.63;;
18280;SDS011;9266;51.132;17.062;2023-04-15T03:32:46;22.30;;;17.57;;
18280;SDS011;9266;51.132;17.062;2023-04-15T03:35:13;22.87;;;19.30;;
18280;SDS011;9266;51.132;17.062;2023-04-15T03:37:41;22.30;;;18.60;;
18280;SDS011;9266;51.132;17.062;2023-04-15T03:40:08;22.17;;;19.47;;
18280;SDS011;9266;51.132;17.062;2023-04-15T03:42:37;25.53;;;19.67;;
18280;SDS011;9266;51.132;17.062;2023-04-15T03:45:05;23.83;;;19.30;;
18280;SDS011;9266;51.132;17.062;2023-04-15T03:47:32;21.10;;;18.43;;
18280;SDS011;9266;51.132;17.062;2023-04-15T03:50:00;20.60;;;17.60;;
18280;SDS011;9266;51.132;17.062;2023-04-15T03:52:26;23.37;;;18.17;;
18280;SDS011;9266;51.132;17.062;2023-04-15T03:54:54;22.50;;;18.63;;
18280;SDS011;9266;51.132;17.062;2023-04-15T03:57:21;25.43;;;18.77;;
18280;SDS011;9266;51.132;17.062;2023-04-15T03:59:49;21.23;;;17.70;;
18280;SDS011;9266;51.132;17.062;2023-04-15T04:02:16;20.80;;;18.40;;
18280;SDS011;9266;51.132;17.062;2023-04-15T04:04:43;19.83;;;16.67;;
18280;SDS011;9266;51.132;17.062;2023-04-15T04:07:13;21.73;;;17.77;;
18280;SDS011;9266;51.132;17.062;2023-04-15T04:09:41;19.60;;;16.93;;
18280;SDS011;9266;51.132;17.062;2023-04-15T04:12:08;21.77;;;17.33;;
18280;SDS011;9266;51.132;17.062;2023-04-15T04:14:35;20.57;;;18.03;;
18280;SDS011;9266;51.132;17.062;2023-04-15T04:17:03;20.97;;;18.53;;
18280;SDS011;9266;51.132;17.062;2023-04-15T04:19:31;20.57;;;18.07;;
18280;SDS011;9266;51.132;17.062;2023-04-15T04:21:58;21.13;;;17.73;;
18280;SDS011;9266;51.132;17.062;2023-04-15T04:24:25;21.30;;;17.67;;
18280;SDS011;9266;51.132;17.062;2023-04-15T04:26:52;20.47;;;17.50;;
18280;SDS011;9266;51.132;17.062;2023-04-15T04:29:20;19.50;;;16.83;;
18280;SDS011;9266;51.132;17.062;2023-04-15T04:31:47;17.17;;;14.40;;
18280;SDS011;9266;51.132;17.062;2023-04-15T04:34:16;16.30;;;14.30;;
18280;SDS011;9266;51.132;17.062;2023-04-15T04:36:43;14.83;;;12.87;;
18280;SDS011;9266;51.132;17.062;2023-04-15T04:39:10;14.37;;;11.43;;
18280;SDS011;9266;51.132;17.062;2023-04-15T04:41:37;14.23;;;11.80;;
18280;SDS011;9266;51.132;17.062;2023-04-15T04:44:04;14.27;;;11.33;;
18280;SDS011;9266;51.132;17.062;2023-04-15T04:46:31;12.40;;;11.10;;
18280;SDS011;9266;51.132;17.062;2023-04-15T04:48:58;10.97;;;9.87;;
18280;SDS011;9266;51.132;17.062;2023-04-15T04:51:26;12.87;;;9.27;;
18280;SDS011;9266;51.132;17.062;2023-04-15T04:53:53;10.67;;;9.57;;
18280;SDS011;9266;51.132;17.062;2023-04-15T04:56:20;9.83;;;8.80;;
18280;SDS011;9266;51.132;17.062;2023-04-15T04:58:47;10.07;;;9.00;;
18280;SDS011;9266;51.132;17.062;2023-04-15T05:01:15;9.23;;;8.33;;
18280;SDS011;9266;51.132;17.062;2023-04-15T05:03:42;8.50;;;7.10;;
18280;SDS011;9266;51.132;17.062;2023-04-15T05:06:10;8.07;;;7.37;;
18280;SDS011;9266;51.132;17.062;2023-04-15T05:08:38;7.77;;;6.97;;
18280;SDS011;9266;51.132;17.062;2023-04-15T05:11:06;9.17;;;7.80;;
18280;SDS011;9266;51.132;17.062;2023-04-15T05:13:33;8.37;;;7.47;;
18280;SDS011;9266;51.132;17.062;2023-04-15T05:16:02;8.73;;;7.33;;
18280;SDS011;9266;51.132;17.062;2023-04-15T05:18:30;8.67;;;7.77;;
18280;SDS011;9266;51.132;17.062;2023-04-15T05:20:57;9.27;;;7.77;;
18280;SDS011;9266;51.132;17.062;2023-04-15T05:23:25;8.53;;;7.73;;
18280;SDS011;9266;51.132;17.062;2023-04-15T05:25:54;9.23;;;7.77;;
18280;SDS011;9266;51.132;17.062;2023-04-15T05:28:20;9.03;;;8.10;;
18280;SDS011;9266;51.132;17.062;2023-04-15T05:30:48;9.10;;;7.87;;
18280;SDS011;9266;51.132;17.062;2023-04-15T05:33:15;9.50;;;8.50;;
18280;SDS011;9266;51.132;17.062;2023-04-15T05:35:42;9.70;;;8.07;;
18280;SDS011;9266;51.132;17.062;2023-04-15T05:38:09;8.33;;;7.53;;
18280;SDS011;9266;51.132;17.062;2023-04-15T05:40:36;8.60;;;7.67;;
18280;SDS011;9266;51.132;17.062;2023-04-15T05:43:04;12.10;;;8.33;;
18280;SDS011;9266;51.132;17.062;2023-04-15T05:45:31;10.13;;;8.63;;
18280;SDS011;9266;51.132;17.062;2023-04-15T05:47:58;8.37;;;7.53;;
18280;SDS011;9266;51.132;17.062;2023-04-15T05:50:25;9.23;;;8.03;;
18280;SDS011;9266;51.132;17.062;2023-04-15T05:52:53;9.33;;;8.33;;
18280;SDS011;9266;51.132;17.062;2023-04-15T05:55:20;7.33;;;6.47;;
18280;SDS011;9266;51.132;17.062;2023-04-15T05:57:47;9.03;;;6.90;;
18280;SDS011;9266;51.132;17.062;2023-04-15T06:00:16;5.57;;;5.07;;
18280;SDS011;9266;51.132;17.062;2023-04-15T06:02:43;6.37;;;4.60;;
18280;SDS011;9266;51.132;17.062;2023-04-15T06:05:10;4.70;;;4.30;;
18280;SDS011;9266;51.132;17.062;2023-04-15T06:07:37;3.80;;;3.50;;
18280;SDS011;9266;51.132;17.062;2023-04-15T06:10:05;4.03;;;3.50;;
18280;SDS011;9266;51.132;17.062;2023-04-15T06:12:33;3.97;;;3.57;;
18280;SDS011;9266;51.132;17.062;2023-04-15T06:15:00;3.20;;;2.90;;
18280;SDS011;9266;51.132;17.062;2023-04-15T06:17:29;4.03;;;3.23;;
18280;SDS011;9266;51.132;17.062;2023-04-15T06:19:56;3.10;;;2.80;;
18280;SDS011;9266;51.132;17.062;2023-04-15T06:22:23;3.20;;;2.90;;
18280;SDS011;9266;51.132;17.062;2023-04-15T06:24:50;3.37;;;3.07;;
18280;SDS011;9266;51.132;17.062;2023-04-15T06:27:17;6.70;;;4.10;;
18280;SDS011;9266;51.132;17.062;2023-04-15T06:29:44;4.00;;;3.27;;
18280;SDS011;9266;51.132;17.062;2023-04-15T06:32:11;3.90;;;2.70;;
18280;SDS011;9266;51.132;17.062;2023-04-15T06:34:40;3.20;;;2.50;;
18280;SDS011;9266;51.132;17.062;2023-04-15T06:37:07;2.80;;;2.50;;
18280;SDS011;9266;51.132;17.062;2023-04-15T06:39:35;2.57;;;2.37;;
18280;SDS011;9266;51.132;17.062;2023-04-15T06:42:02;2.50;;;2.30;;
18280;SDS011;9266;51.132;17.062;2023-04-15T06:44:29;2.97;;;2.00;;
18280;SDS011;9266;51.132;17.062;2023-04-15T06:46:56;2.70;;;2.23;;
18280;SDS011;9266;51.132;17.062;2023-04-15T06:49:23;2.43;;;2.23;;
18280;SDS011;9266;51.132;17.062;2023-04-15T06:51:52;3.83;;;2.60;;
18280;SDS011;9266;51.132;17.062;2023-04-15T06:54:19;2.73;;;2.50;;
18280;SDS011;9266;51.132;17.062;2023-04-15T06:56:46;2.63;;;2.33;;
18280;SDS011;9266;51.132;17.062;2023-04-15T06:59:14;2.60;;;2.40;;
18280;SDS011;9266;51.132;17.062;2023-04-15T07:01:41;2.50;;;2.30;;
18280;SDS011;9266;51.132;17.062;2023-04-15T07:04:08;4.93;;;3.10;;
18280;SDS011;9266;51.132;17.062;2023-04-15T07:06:35;3.00;;;2.57;;
18280;SDS011;9266;51.132;17.062;2023-04-15T07:09:03;7.63;;;4.20;;
18280;SDS011;9266;51.132;17.062;2023-04-15T07:11:30;3.67;;;2.60;;
18280;SDS011;9266;51.132;17.062;2023-04-15T07:13:57;2.73;;;2.43;;
18280;SDS011;9266;51.132;17.062;2023-04-15T07:16:24;4.47;;;2.80;;
18280;SDS011;9266;51.132;17.062;2023-04-15T07:18:51;2.70;;;2.50;;
18280;SDS011;9266;51.132;17.062;2023-04-15T07:21:19;3.20;;;2.17;;
18280;SDS011;9266;51.132;17.062;2023-04-15T07:23:47;2.60;;;2.27;;
18280;SDS011;9266;51.132;17.062;2023-04-15T07:26:15;3.37;;;3.07;;
18280;SDS011;9266;51.132;17.062;2023-04-15T07:28:42;4.73;;;2.93;;
18280;SDS011;9266;51.132;17.062;2023-04-15T07:31:10;3.70;;;2.40;;
18280;SDS011;9266;51.132;17.062;2023-04-15T07:33:37;3.43;;;2.27;;
18280;SDS011;9266;51.132;17.062;2023-04-15T07:36:04;3.93;;;2.50;;
18280;SDS011;9266;51.132;17.062;2023-04-15T07:38:31;4.90;;;2.57;;
18280;SDS011;9266;51.132;17.062;2023-04-15T07:40:58;3.90;;;2.70;;
18280;SDS011;9266;51.132;17.062;2023-04-15T07:43:27;4.07;;;2.47;;
18280;SDS011;9266;51.132;17.062;2023-04-15T07:45:54;3.60;;;2.40;;
18280;SDS011;9266;51.132;17.062;2023-04-15T07:48:21;4.17;;;2.93;;
18280;SDS011;9266;51.132;17.062;2023-04-15T07:50:48;3.57;;;2.67;;
18280;SDS011;9266;51.132;17.062;2023-04-15T07:53:15;2.20;;;2.00;;
18280;SDS011;9266;51.132;17.062;2023-04-15T07:55:42;3.83;;;2.60;;
18280;SDS011;9266;51.132;17.062;2023-04-15T07:58:09;2.33;;;2.10;;
18280;SDS011;9266;51.132;17.062;2023-04-15T08:00:37;2.47;;;2.03;;
18280;SDS011;9266;51.132;17.062;2023-04-15T08:03:04;4.10;;;2.27;;
18280;SDS011;9266;51.132;17.062;2023-04-15T08:05:32;4.73;;;2.60;;
18280;SDS011;9266;51.132;17.062;2023-04-15T08:07:59;3.50;;;2.50;;
18280;SDS011;9266;51.132;17.062;2023-04-15T08:10:27;4.97;;;2.30;;
18280;SDS011;9266;51.132;17.062;2023-04-15T08:12:54;2.33;;;2.03;;
18280;SDS011;9266;51.132;17.062;2023-04-15T08:15:21;5.40;;;2.37;;
18280;SDS011;9266;51.132;17.062;2023-04-15T08:17:50;6.40;;;2.37;;
18280;SDS011;9266;51.132;17.062;2023-04-15T08:20:17;4.97;;;2.40;;
18280;SDS011;9266;51.132;17.062;2023-04-15T08:22:44;4.07;;;2.93;;
18280;SDS011;9266;51.132;17.062;2023-04-15T08:25:15;4.67;;;2.20;;
18280;SDS011;9266;51.132;17.062;2023-04-15T08:27:43;4.47;;;1.80;;
18280;SDS011;9266;51.132;17.062;2023-04-15T08:30:11;2.10;;;1.40;;
18280;SDS011;9266;51.132;17.062;2023-04-15T08:32:38;1.50;;;1.40;;
18280;SDS011;9266;51.132;17.062;2023-04-15T08:35:12;4.13;;;1.53;;
18280;SDS011;9266;51.132;17.062;2023-04-15T08:37:39;2.90;;;1.77;;
18280;SDS011;9266;51.132;17.062;2023-04-15T08:40:07;6.00;;;2.13;;
18280;SDS011;9266;51.132;17.062;2023-04-15T08:42:36;2.00;;;1.50;;
18280;SDS011;9266;51.132;17.062;2023-04-15T08:45:08;3.07;;;1.60;;
18280;SDS011;9266;51.132;17.062;2023-04-15T08:47:36;4.50;;;2.37;;
18280;SDS011;9266;51.132;17.062;2023-04-15T08:50:05;2.17;;;1.90;;
18280;SDS011;9266;51.132;17.062;2023-04-15T08:52:37;2.10;;;1.60;;
18280;SDS011;9266;51.132;17.062;2023-04-15T08:55:05;2.60;;;2.00;;
18280;SDS011;9266;51.132;17.062;2023-04-15T08:57:34;4.27;;;2.20;;
18280;SDS011;9266;51.132;17.062;2023-04-15T09:00:04;2.77;;;1.40;;
18280;SDS011;9266;51.132;17.062;2023-04-15T09:02:33;1.83;;;1.33;;
18280;SDS011;9266;51.132;17.062;2023-04-15T09:05:00;3.80;;;1.47;;
18280;SDS011;9266;51.132;17.062;2023-04-15T09:07:32;4.83;;;2.17;;
18280;SDS011;9266;51.132;17.062;2023-04-15T09:10:01;3.37;;;2.00;;
18280;SDS011;9266;51.132;17.062;2023-04-15T09:12:28;9.40;;;3.20;;
18280;SDS011;9266;51.132;17.062;2023-04-15T09:14:56;4.03;;;1.50;;
18280;SDS011;9266;51.132;17.062;2023-04-15T09:17:23;1.57;;;1.47;;
18280;SDS011;9266;51.132;17.062;2023-04-15T09:19:58;2.40;;;1.60;;
18280;SDS011;9266;51.132;17.062;2023-04-15T09:22:33;3.10;;;1.60;;
18280;SDS011;9266;51.132;17.062;2023-04-15T09:25:03;1.93;;;1.50;;
18280;SDS011;9266;51.132;17.062;2023-04-15T09:27:51;1.63;;;1.37;;
18280;SDS011;9266;51.132;17.062;2023-04-15T09:30:19;1.27;;;1.17;;
18280;SDS011;9266;51.132;17.062;2023-04-15T09:32:49;2.20;;;1.37;;
18280;SDS011;9266;51.132;17.062;2023-04-15T09:35:16;2.83;;;1.47;;
18280;SDS011;9266;51.132;17.062;2023-04-15T09:37:44;2.27;;;1.50;;
18280;SDS011;9266;51.132;17.062;2023-04-15T09:40:12;1.73;;;1.50;;
18280;SDS011;9266;51.132;17.062;2023-04-15T09:45:22;3.63;;;1.87;;
18280;SDS011;9266;51.132;17.062;2023-04-15T09:47:50;1.70;;;1.60;;
18280;SDS011;9266;51.132;17.062;2023-04-15T09:50:17;2.90;;;1.90;;
18280;SDS011;9266;51.132;17.062;2023-04-15T09:52:45;1.80;;;1.70;;
18280;SDS011;9266;51.132;17.062;2023-04-15T09:55:14;1.67;;;1.57;;
18280;SDS011;9266;51.132;17.062;2023-04-15T09:57:43;3.40;;;1.80;;
18280;SDS011;9266;51.132;17.062;2023-04-15T10:00:12;2.27;;;1.70;;
18280;SDS011;9266;51.132;17.062;2023-04-15T10:02:40;3.97;;;2.30;;
18280;SDS011;9266;51.132;17.062;2023-04-15T10:05:09;7.63;;;2.53;;
18280;SDS011;9266;51.132;17.062;2023-04-15T10:07:39;3.43;;;2.17;;
18280;SDS011;9266;51.132;17.062;2023-04-15T10:10:07;1.47;;;1.37;;
18280;SDS011;9266;51.132;17.062;2023-04-15T10:12:37;2.67;;;1.47;;
18280;SDS011;9266;51.132;17.062;2023-04-15T10:15:07;1.30;;;1.20;;
18280;SDS011;9266;51.132;17.062;2023-04-15T10:17:41;3.73;;;1.50;;
18280;SDS011;9266;51.132;17.062;2023-04-15T10:20:10;2.20;;;1.27;;
18280;SDS011;9266;51.132;17.062;2023-04-15T10:22:39;3.53;;;2.10;;
18280;SDS011;9266;51.132;17.062;2023-04-15T10:25:09;2.80;;;1.43;;
18280;SDS011;9266;51.132;17.062;2023-04-15T10:27:39;1.37;;;1.20;;
18280;SDS011;9266;51.132;17.062;2023-04-15T10:30:07;1.63;;;1.40;;
18280;SDS011;9266;51.132;17.062;2023-04-15T10:32:35;1.60;;;1.50;;
18280;SDS011;9266;51.132;17.062;2023-04-15T10:35:03;1.43;;;1.30;;
18280;SDS011;9266;51.132;17.062;2023-04-15T10:37:33;3.37;;;1.90;;
18280;SDS011;9266;51.132;17.062;2023-04-15T10:42:52;2.67;;;1.60;;
18280;SDS011;9266;51.132;17.062;2023-04-15T10:45:20;2.17;;;1.97;;
18280;SDS011;9266;51.132;17.062;2023-04-15T10:47:51;1.40;;;1.30;;
18280;SDS011;9266;51.132;17.062;2023-04-15T10:50:20;6.73;;;6.17;;
18280;SDS011;9266;51.132;17.062;2023-04-15T10:52:49;5.40;;;1.40;;
18280;SDS011;9266;51.132;17.062;2023-04-15T10:55:18;1.47;;;1.13;;
18280;SDS011;9266;51.132;17.062;2023-04-15T10:57:48;2.20;;;1.63;;
18280;SDS011;9266;51.132;17.062;2023-04-15T11:00:19;1.57;;;1.33;;
18280;SDS011;9266;51.132;17.062;2023-04-15T11:02:51;1.50;;;1.40;;
18280;SDS011;9266;51.132;17.062;2023-04-15T11:05:20;2.23;;;1.80;;
18280;SDS011;9266;51.132;17.062;2023-04-15T11:07:52;1.63;;;1.50;;
18280;SDS011;9266;51.132;17.062;2023-04-15T11:13:26;2.73;;;1.60;;
18280;SDS011;9266;51.132;17.062;2023-04-15T11:16:00;1.50;;;1.40;;
18280;SDS011;9266;51.132;17.062;2023-04-15T11:18:31;1.70;;;1.50;;
18280;SDS011;9266;51.132;17.062;2023-04-15T11:21:03;2.30;;;1.97;;
18280;SDS011;9266;51.132;17.062;2023-04-15T11:23:37;2.87;;;1.70;;
18280;SDS011;9266;51.132;17.062;2023-04-15T11:26:08;1.57;;;1.47;;
18280;SDS011;9266;51.132;17.062;2023-04-15T11:28:37;2.37;;;1.87;;
18280;SDS011;9266;51.132;17.062;2023-04-15T11:31:08;3.53;;;1.70;;
18280;SDS011;9266;51.132;17.062;2023-04-15T11:33:36;4.53;;;2.43;;
18280;SDS011;9266;51.132;17.062;2023-04-15T11:36:05;1.80;;;1.30;;
18280;SDS011;9266;51.132;17.062;2023-04-15T11:38:33;2.20;;;1.63;;
18280;SDS011;9266;51.132;17.062;2023-04-15T11:41:01;2.40;;;1.67;;
18280;SDS011;9266;51.132;17.062;2023-04-15T11:43:30;2.17;;;1.63;;
18280;SDS011;9266;51.132;17.062;2023-04-15T11:46:00;2.33;;;1.40;;
18280;SDS011;9266;51.132;17.062;2023-04-15T11:48:29;1.33;;;1.23;;
18280;SDS011;9266;51.132;17.062;2023-04-15T11:50:58;2.10;;;1.90;;
18280;SDS011;9266;51.132;17.062;2023-04-15T11:53:34;2.43;;;1.50;;
18280;SDS011;9266;51.132;17.062;2023-04-15T11:56:03;1.40;;;1.30;;
18280;SDS011;9266;51.132;17.062;2023-04-15T11:58:32;1.60;;;1.50;;
18280;SDS011;9266;51.132;17.062;2023-04-15T12:01:01;4.70;;;2.90;;
18280;SDS011;9266;51.132;17.062;2023-04-15T12:03:30;1.60;;;1.50;;
18280;SDS011;9266;51.132;17.062;2023-04-15T12:06:05;1.90;;;1.40;;
18280;SDS011;9266;51.132;17.062;2023-04-15T12:08:50;3.03;;;1.70;;
18280;SDS011;9266;51.132;17.062;2023-04-15T12:11:31;3.60;;;2.13;;
18280;SDS011;9266;51.132;17.062;2023-04-15T12:14:04;1.50;;;1.30;;
18280;SDS011;9266;51.132;17.062;2023-04-15T12:16:33;2.27;;;2.07;;
18280;SDS011;9266;51.132;17.062;2023-04-15T12:19:05;6.20;;;2.47;;
18280;SDS011;9266;51.132;17.062;2023-04-15T12:21:37;2.03;;;1.70;;
18280;SDS011;9266;51.132;17.062;2023-04-15T12:24:06;3.87;;;1.93;;
18280;SDS011;9266;51.132;17.062;2023-04-15T12:26:35;1.60;;;1.50;;
18280;SDS011;9266;51.132;17.062;2023-04-15T12:29:04;1.50;;;1.40;;
18280;SDS011;9266;51.132;17.062;2023-04-15T12:31:33;1.60;;;1.50;;
18280;SDS011;9266;51.132;17.062;2023-04-15T12:34:03;4.07;;;1.60;;
18280;SDS011;9266;51.132;17.062;2023-04-15T12:36:33;9.30;;;8.37;;
18280;SDS011;9266;51.132;17.062;2023-04-15T12:39:01;2.17;;;1.80;;
18280;SDS011;9266;51.132;17.062;2023-04-15T12:41:30;2.87;;;1.63;;
18280;SDS011;9266;51.132;17.062;2023-04-15T12:43:57;4.17;;;3.77;;
18280;SDS011;9266;51.132;17.062;2023-04-15T12:46:24;1.70;;;1.60;;
18280;SDS011;9266;51.132;17.062;2023-04-15T12:48:52;1.83;;;1.70;;
18280;SDS011;9266;51.132;17.062;2023-04-15T12:51:21;2.00;;;1.80;;
18280;SDS011;9266;51.132;17.062;2023-04-15T12:53:48;2.20;;;1.70;;
18280;SDS011;9266;51.132;17.062;2023-04-15T12:56:16;2.00;;;1.70;;
18280;SDS011;9266;51.132;17.062;2023-04-15T12:58:43;1.40;;;1.30;;
18280;SDS011;9266;51.132;17.062;2023-04-15T13:01:10;1.60;;;1.50;;
18280;SDS011;9266;51.132;17.062;2023-04-15T13:03:37;2.23;;;1.77;;
18280;SDS011;9266;51.132;17.062;2023-04-15T13:06:04;1.87;;;1.43;;
18280;SDS011;9266;51.132;17.062;2023-04-15T13:08:33;2.00;;;1.60;;
18280;SDS011;9266;51.132;17.062;2023-04-15T13:11:00;1.70;;;1.47;;
18280;SDS011;9266;51.132;17.062;2023-04-15T13:13:27;1.77;;;1.50;;
18280;SDS011;9266;51.132;17.062;2023-04-15T13:15:56;2.77;;;1.67;;
18280;SDS011;9266;51.132;17.062;2023-04-15T13:18:23;1.60;;;1.50;;
18280;SDS011;9266;51.132;17.062;2023-04-15T13:20:50;2.83;;;1.70;;
18280;SDS011;9266;51.132;17.062;2023-04-15T13:23:17;2.20;;;1.80;;
18280;SDS011;9266;51.132;17.062;2023-04-15T13:25:45;1.70;;;1.60;;
18280;SDS011;9266;51.132;17.062;2023-04-15T13:28:12;2.77;;;1.63;;
18280;SDS011;9266;51.132;17.062;2023-04-15T13:30:39;1.70;;;1.60;;
18280;SDS011;9266;51.132;17.062;2023-04-15T13:33:08;2.00;;;1.80;;
18280;SDS011;9266;51.132;17.062;2023-04-15T13:35:35;2.47;;;2.10;;
18280;SDS011;9266;51.132;17.062;2023-04-15T13:38:02;2.10;;;1.80;;
18280;SDS011;9266;51.132;17.062;2023-04-15T13:40:29;1.80;;;1.70;;
18280;SDS011;9266;51.132;17.062;2023-04-15T13:42:58;1.93;;;1.77;;
18280;SDS011;9266;51.132;17.062;2023-04-15T13:45:25;1.70;;;1.60;;
18280;SDS011;9266;51.132;17.062;2023-04-15T13:47:52;3.17;;;2.10;;
18280;SDS011;9266;51.132;17.062;2023-04-15T13:50:20;1.80;;;1.70;;
18280;SDS011;9266;51.132;17.062;2023-04-15T13:52:47;1.73;;;1.63;;
18280;SDS011;9266;51.132;17.062;2023-04-15T13:55:15;2.60;;;1.70;;
18280;SDS011;9266;51.132;17.062;2023-04-15T13:57:42;1.70;;;1.60;;
18280;SDS011;9266;51.132;17.062;2023-04-15T14:00:12;1.90;;;1.80;;
18280;SDS011;9266;51.132;17.062;2023-04-15T14:02:39;1.83;;;1.70;;
18280;SDS011;9266;51.132;17.062;2023-04-15T14:05:07;1.70;;;1.60;;
18280;SDS011;9266;51.132;17.062;2023-04-15T14:07:34;2.47;;;1.70;;
18280;SDS011;9266;51.132;17.062;2023-04-15T14:10:02;2.17;;;1.90;;
18280;SDS011;9266;51.132;17.062;2023-04-15T14:12:29;1.63;;;1.53;;
18280;SDS011;9266;51.132;17.062;2023-04-15T14:14:56;1.60;;;1.50;;
18280;SDS011;9266;51.132;17.062;2023-04-15T14:17:24;2.10;;;1.67;;
18280;SDS011;9266;51.132;17.062;2023-04-15T14:19:52;1.90;;;1.77;;
18280;SDS011;9266;51.132;17.062;2023-04-15T14:22:19;2.70;;;1.80;;
18280;SDS011;9266;51.132;17.062;2023-04-15T14:24:46;3.07;;;1.80;;
18280;SDS011;9266;51.132;17.062;2023-04-15T14:27:13;3.03;;;2.47;;
18280;SDS011;9266;51.132;17.062;2023-04-15T14:29:40;2.23;;;1.77;;
18280;SDS011;9266;51.132;17.062;2023-04-15T14:32:07;1.87;;;1.77;;
18280;SDS011;9266;51.132;17.062;2023-04-15T14:34:36;2.00;;;1.80;;
18280;SDS011;9266;51.132;17.062;2023-04-15T14:37:03;1.73;;;1.63;;
18280;SDS011;9266;51.132;17.062;2023-04-15T14:39:30;1.87;;;1.77;;
18280;SDS011;9266;51.132;17.062;2023-04-15T14:41:57;1.60;;;1.50;;
18280;SDS011;9266;51.132;17.062;2023-04-15T14:44:24;2.73;;;2.07;;
18280;SDS011;9266;51.132;17.062;2023-04-15T14:46:51;1.83;;;1.73;;
18280;SDS011;9266;51.132;17.062;2023-04-15T14:49:18;2.50;;;1.60;;
18280;SDS011;9266;51.132;17.062;2023-04-15T14:51:47;2.67;;;1.80;;
18280;SDS011;9266;51.132;17.062;2023-04-15T14:54:14;2.70;;;1.80;;
18280;SDS011;9266;51.132;17.062;2023-04-15T14:56:41;2.50;;;2.00;;